createdAt,value
2022-12-17T00:00:08.655Z,-3.50
2022-12-17T00:05:30.647Z,-3.50
2022-12-17T00:10:51.471Z,-3.50
2022-12-17T00:16:12.725Z,-3.50
2022-12-17T00:21:33.885Z,-3.50
2022-12-17T00:26:54.686Z,-3.50
2022-12-17T00:32:17.280Z,-3.50
2022-12-17T00:37:38.124Z,-3.50
2022-12-17T00:42:59.393Z,-3.50
2022-12-17T00:48:21.573Z,-3.50
2022-12-17T00:53:42.508Z,-3.50
2022-12-17T00:59:03.295Z,-3.60
2022-12-17T01:04:24.189Z,-3.70
2022-12-17T01:09:45.056Z,-3.70
2022-12-17T01:15:05.983Z,-3.70
2022-12-17T01:20:27.193Z,-3.70
2022-12-17T01:25:48.227Z,-3.70
2022-12-17T01:31:11.823Z,-3.70
2022-12-17T01:36:32.731Z,-3.70
2022-12-17T01:41:53.609Z,-3.70
2022-12-17T01:47:14.580Z,-3.70
2022-12-17T01:52:35.856Z,-3.70
2022-12-17T01:57:57.602Z,-3.70
2022-12-17T02:03:19.189Z,-3.70
2022-12-17T02:08:49.018Z,-3.70
2022-12-17T02:14:34.703Z,-3.60
2022-12-17T02:20:14.821Z,-3.70
2022-12-17T02:25:47.314Z,-3.70
2022-12-17T02:31:09.446Z,-3.70
2022-12-17T02:36:50.403Z,-3.70
2022-12-17T02:42:15.429Z,-3.80
2022-12-17T02:47:38.188Z,-3.90
2022-12-17T02:53:07.314Z,-3.90
2022-12-17T02:58:28.432Z,-3.90
2022-12-17T03:03:50.642Z,-3.80
2022-12-17T03:09:11.776Z,-3.90
2022-12-17T03:14:32.671Z,-3.90
2022-12-17T03:19:53.795Z,-3.90
2022-12-17T03:25:34.420Z,-3.90
2022-12-17T03:30:55.486Z,-3.90
2022-12-17T03:36:16.431Z,-3.90
2022-12-17T03:41:37.576Z,-4.00
2022-12-17T03:46:58.743Z,-4.10
2022-12-17T03:52:19.857Z,-4.10
2022-12-17T03:57:40.763Z,-4.10
2022-12-17T04:03:01.676Z,-4.10
2022-12-17T04:08:22.492Z,-4.00
2022-12-17T04:13:44.009Z,-3.50
2022-12-17T04:19:05.142Z,-4.10
2022-12-17T04:24:26.015Z,-4.10
2022-12-17T04:29:46.754Z,-4.10
2022-12-17T04:35:08.012Z,-4.20
2022-12-17T04:40:30.482Z,-4.20
2022-12-17T04:45:51.263Z,-4.30
2022-12-17T04:51:12.881Z,-4.40
2022-12-17T04:56:33.674Z,-4.40
2022-12-17T05:01:54.769Z,-4.30
2022-12-17T05:07:15.607Z,-4.20
2022-12-17T05:12:36.386Z,-4.20
2022-12-17T05:17:57.200Z,-4.30
2022-12-17T05:23:24.131Z,-4.10
2022-12-17T05:28:44.967Z,-4.10
2022-12-17T05:34:05.836Z,-4.10
2022-12-17T05:39:26.713Z,-4.10
2022-12-17T05:44:47.735Z,-4.10
2022-12-17T05:50:08.660Z,-4.10
2022-12-17T05:55:29.711Z,-4.00
2022-12-17T06:00:50.533Z,-4.00
2022-12-17T06:06:15.582Z,-3.90
2022-12-17T06:11:36.379Z,-3.90
2022-12-17T06:16:57.281Z,-3.90
2022-12-17T06:22:18.152Z,-3.90
2022-12-17T06:27:38.954Z,-3.80
2022-12-17T06:32:59.845Z,-3.70
2022-12-17T06:38:24.939Z,-3.70
2022-12-17T06:43:46.473Z,-3.60
2022-12-17T06:49:07.416Z,-3.60
2022-12-17T06:54:28.178Z,-3.60
2022-12-17T06:59:49.061Z,-3.60
2022-12-17T07:05:10.203Z,-3.60
2022-12-17T07:10:31.230Z,-3.60
2022-12-17T07:15:52.194Z,-3.50
2022-12-17T07:21:13.235Z,-3.50
2022-12-17T07:26:34.053Z,-3.40
2022-12-17T07:31:54.954Z,-3.30
2022-12-17T07:37:20.332Z,-3.20
2022-12-17T07:42:41.480Z,-3.20
2022-12-17T07:48:09.926Z,-3.20
2022-12-17T07:53:30.742Z,-3.10
2022-12-17T07:58:51.626Z,-3.10
2022-12-17T08:04:12.562Z,-3.10
2022-12-17T08:09:33.497Z,-2.90
2022-12-17T08:14:55.575Z,-2.90
2022-12-17T08:20:16.446Z,-2.80
2022-12-17T08:25:37.324Z,-2.70
2022-12-17T08:30:58.434Z,-2.60
2022-12-17T08:36:19.186Z,-2.50
2022-12-17T08:41:40.122Z,-2.40
2022-12-17T08:47:00.998Z,-2.40
2022-12-17T08:52:22.175Z,-2.30
2022-12-17T08:57:43.605Z,-2.20
2022-12-17T09:03:04.468Z,-2.20
2022-12-17T09:08:26.151Z,-2.10
2022-12-17T09:13:47.028Z,-2.00
2022-12-17T09:19:09.510Z,-2.00
2022-12-17T09:24:31.420Z,-1.90
2022-12-17T09:29:55.455Z,-1.80
2022-12-17T09:35:16.438Z,-1.80
2022-12-17T09:40:40.929Z,-1.70
2022-12-17T09:46:19.025Z,-1.60
2022-12-17T09:51:43.703Z,-1.50
2022-12-17T09:57:04.639Z,-1.50
2022-12-17T10:02:41.607Z,-1.40
2022-12-17T10:08:05.090Z,-1.40
2022-12-17T10:13:40.693Z,-1.40
2022-12-17T10:19:03.160Z,-1.30
2022-12-17T10:24:30.033Z,-1.30
2022-12-17T10:29:52.510Z,-1.30
2022-12-17T10:35:13.402Z,-1.20
2022-12-17T10:40:44.015Z,-1.10
2022-12-17T10:46:13.127Z,-1.10
2022-12-17T10:51:50.213Z,-1.00
2022-12-17T10:57:13.646Z,-0.80
2022-12-17T11:02:43.369Z,-0.80
2022-12-17T11:08:04.357Z,-0.90
2022-12-17T11:13:30.877Z,-0.80
2022-12-17T11:19:09.442Z,-0.70
2022-12-17T11:24:36.930Z,-0.70
2022-12-17T11:29:57.761Z,-0.30
2022-12-17T11:35:25.703Z,-0.80
2022-12-17T11:40:56.701Z,-0.70
2022-12-17T11:46:49.011Z,-0.70
2022-12-17T11:52:28.070Z,-0.70
2022-12-17T11:58:35.794Z,-0.80
2022-12-17T12:04:17.524Z,-0.70
2022-12-17T12:10:01.122Z,-0.60
2022-12-17T12:16:08.774Z,-0.50
2022-12-17T12:21:46.751Z,-0.60
2022-12-17T12:27:26.558Z,-0.80
2022-12-17T12:33:10.171Z,-0.80
2022-12-17T12:38:46.314Z,-0.90
2022-12-17T12:44:17.375Z,-1.00
2022-12-17T12:49:44.469Z,-1.00
2022-12-17T12:55:05.394Z,-1.00
2022-12-17T13:00:45.115Z,-0.90
2022-12-17T13:05:47.630Z,-0.90
2022-12-17T13:10:52.867Z,-0.90
2022-12-17T13:16:04.903Z,-0.90
2022-12-17T13:21:16.459Z,-0.60
2022-12-17T13:26:30.735Z,-0.60
2022-12-17T13:31:49.825Z,-1.20
2022-12-17T13:37:18.175Z,-1.20
2022-12-17T13:42:32.611Z,-1.20
2022-12-17T13:47:35.900Z,-1.30
2022-12-17T13:52:38.353Z,-1.40
2022-12-17T13:57:45.855Z,-1.40
2022-12-17T14:02:48.992Z,-1.50
2022-12-17T14:07:52.338Z,-1.50
2022-12-17T14:13:08.214Z,-1.40
2022-12-17T14:18:17.165Z,-1.50
2022-12-17T14:23:29.275Z,-1.60
2022-12-17T14:28:34.785Z,-1.70
2022-12-17T14:33:41.760Z,-1.70
2022-12-17T14:38:58.419Z,-1.70
2022-12-17T14:44:02.520Z,-1.80
2022-12-17T14:49:16.931Z,-1.30
2022-12-17T14:54:26.039Z,-1.80
2022-12-17T14:59:35.779Z,-1.80
2022-12-17T15:04:39.261Z,-1.80
2022-12-17T15:09:42.175Z,-1.90
2022-12-17T15:14:46.456Z,-1.90
2022-12-17T15:19:55.588Z,-1.90
2022-12-17T15:24:58.437Z,-1.90
2022-12-17T15:30:00.841Z,-1.90
2022-12-17T15:35:03.244Z,-1.90
2022-12-17T15:40:06.611Z,-1.90
2022-12-17T15:45:09.249Z,-1.80
2022-12-17T15:50:11.717Z,-1.80
2022-12-17T15:55:14.483Z,-1.80
2022-12-17T16:00:17.194Z,-1.80
2022-12-17T16:05:22.199Z,-1.90
2022-12-17T16:10:24.622Z,-1.80
2022-12-17T16:15:27.090Z,-1.80
2022-12-17T16:20:29.515Z,-1.80
2022-12-17T16:25:31.930Z,-1.80
2022-12-17T16:30:34.500Z,-1.80
2022-12-17T16:35:36.882Z,-1.80
2022-12-17T16:40:39.228Z,-1.80
2022-12-17T16:45:49.975Z,-1.80
2022-12-17T16:50:52.424Z,-1.80
2022-12-17T16:55:54.788Z,-1.80
2022-12-17T17:00:57.242Z,-1.80
2022-12-17T17:06:04.484Z,-1.80
2022-12-17T17:11:21.838Z,-1.80
2022-12-17T17:16:25.086Z,-1.80
2022-12-17T17:21:34.311Z,-1.90
2022-12-17T17:26:36.898Z,-1.80
2022-12-17T17:32:09.358Z,-1.80
2022-12-17T17:37:02.142Z,-1.80
2022-12-17T17:42:04.847Z,-1.80
2022-12-17T17:47:07.370Z,-1.90
2022-12-17T17:52:10.958Z,-1.50
2022-12-17T17:57:13.991Z,-1.80
2022-12-17T18:02:16.530Z,-1.80
2022-12-17T18:07:27.232Z,-1.80
2022-12-17T18:12:48.643Z,-1.80
2022-12-17T18:17:51.700Z,-1.80
2022-12-17T18:22:54.116Z,-1.80
2022-12-17T18:27:56.517Z,-1.80
2022-12-17T18:32:58.869Z,-1.90
2022-12-17T18:38:01.674Z,-1.80
2022-12-17T18:43:22.448Z,-1.90
2022-12-17T18:48:24.825Z,-1.90
2022-12-17T18:53:27.171Z,-1.90
2022-12-17T18:58:29.526Z,-1.90
2022-12-17T19:03:32.743Z,-2.00
2022-12-17T19:08:36.171Z,-1.90
2022-12-17T19:13:38.949Z,-1.90
2022-12-17T19:18:42.102Z,-1.90
2022-12-17T19:23:44.752Z,-2.00
2022-12-17T19:28:49.677Z,-2.10
2022-12-17T19:34:00.427Z,-2.10
2022-12-17T19:39:06.530Z,-2.10
2022-12-17T19:44:12.735Z,-2.10
2022-12-17T19:49:16.727Z,-2.20
2022-12-17T19:54:19.545Z,-2.20
2022-12-17T19:59:21.912Z,-2.10
2022-12-17T20:04:24.320Z,-2.10
2022-12-17T20:09:26.732Z,-2.20
2022-12-17T20:14:29.359Z,-2.20
2022-12-17T20:19:33.602Z,-2.20
2022-12-17T20:24:37.403Z,-2.20
2022-12-17T20:29:39.849Z,-2.30
2022-12-17T20:34:42.253Z,-2.10
2022-12-17T20:39:44.687Z,-2.30
2022-12-17T20:44:53.065Z,-2.30
2022-12-17T20:49:55.960Z,-2.40
2022-12-17T20:54:58.911Z,-2.30
2022-12-17T21:00:01.274Z,-2.40
2022-12-17T21:05:05.931Z,-2.50
2022-12-17T21:10:08.643Z,-2.50
2022-12-17T21:15:11.016Z,-2.50
2022-12-17T21:20:13.601Z,-2.50
2022-12-17T21:25:16.536Z,-2.50
2022-12-17T21:30:19.000Z,-2.50
2022-12-17T21:35:21.342Z,-2.50
2022-12-17T21:40:23.796Z,-2.60
2022-12-17T21:45:27.141Z,-2.70
2022-12-17T21:50:30.437Z,-2.80
2022-12-17T21:55:33.285Z,-2.90
2022-12-17T22:00:36.163Z,-3.00
2022-12-17T22:05:38.828Z,-3.00
2022-12-17T22:10:51.654Z,-3.10
2022-12-17T22:15:55.051Z,-3.20
2022-12-17T22:21:01.722Z,-3.30
2022-12-17T22:26:09.439Z,-3.40
2022-12-17T22:31:31.416Z,-3.50
2022-12-17T22:39:09.252Z,-3.50
2022-12-17T22:44:48.899Z,-3.70
2022-12-17T22:47:38.204Z,-3.70
2022-12-17T22:52:40.697Z,-3.80
2022-12-17T22:57:44.301Z,-3.80
2022-12-17T23:02:46.897Z,-3.90
2022-12-17T23:07:50.390Z,-4.20
2022-12-17T23:12:55.034Z,-4.00
2022-12-17T23:18:00.414Z,-4.20
2022-12-17T23:23:03.085Z,-4.40
2022-12-17T23:28:05.594Z,-4.30
2022-12-17T23:33:08.007Z,-4.30
2022-12-17T23:38:10.440Z,-4.30
2022-12-17T23:43:17.388Z,-4.40
2022-12-17T23:48:20.587Z,-4.50
2022-12-17T23:53:23.076Z,-4.70
2022-12-17T23:58:26.127Z,-4.80
